Time;durP1;ratioP1;P1;durP2;ratioP2;P2;SDS_P1;SDS_P2;PMS_P1;PMS_P2;Temp;Humidity;BMP_temperature;BMP_pressure;BME280_temperature;BME280_humidity;BME280_pressure;Samples;Min_cycle;Max_cycle;Signal;HPM_P1;HPM_P2
2022/06/27 06:45:37;;;;;;;16.75;10.70;;;38.10;94.60;;;;;;6215833;22;19923;-94
2022/06/27 06:48:32;;;;;;;12.30;10.43;;;38.20;94.20;;;;;;6258957;22;20016;-94
2022/06/27 06:51:00;;;;;;;13.00;10.55;;;38.30;94.20;;;;;;6234093;22;20448;-92
2022/06/27 06:53:27;;;;;;;14.10;10.43;;;38.30;94.10;;;;;;6231119;22;20014;-94
2022/06/27 06:55:53;;;;;;;14.90;10.57;;;37.90;93.90;;;;;;6225247;23;20023;-94
2022/06/27 06:58:22;;;;;;;12.90;10.90;;;37.70;94.20;;;;;;6200400;23;20007;-93
2022/06/27 07:00:49;;;;;;;15.93;10.52;;;37.30;94.50;;;;;;6198966;23;20008;-94
2022/06/27 07:03:16;;;;;;;14.98;11.10;;;37.40;94.40;;;;;;6199284;23;20001;-94
2022/06/27 07:05:44;;;;;;;14.75;10.80;;;37.30;94.30;;;;;;6198784;23;20004;-94
2022/06/27 07:08:12;;;;;;;17.42;11.00;;;37.40;94.00;;;;;;6199289;23;20015;-94
2022/06/27 07:10:40;;;;;;;15.55;10.80;;;37.60;93.90;;;;;;6196947;23;20004;-94
2022/06/27 07:13:07;;;;;;;16.58;11.50;;;38.20;93.70;;;;;;6197532;23;20015;-93
2022/06/27 07:15:34;;;;;;;15.55;11.27;;;38.40;93.30;;;;;;6197250;23;20012;-93
2022/06/27 07:18:02;;;;;;;15.30;10.88;;;38.60;93.10;;;;;;6196638;23;20011;-93
2022/06/27 07:20:30;;;;;;;22.85;10.30;;;38.20;93.10;;;;;;6195941;23;20087;-92
2022/06/27 07:22:59;;;;;;;16.27;10.40;;;38.80;92.90;;;;;;6224229;23;20008;-93
2022/06/27 07:25:26;;;;;;;14.70;10.45;;;38.50;92.90;;;;;;6196442;23;20333;-93
2022/06/27 07:27:55;;;;;;;17.92;11.15;;;38.90;92.40;;;;;;6198972;23;20075;-94
2022/06/27 07:30:22;;;;;;;16.02;10.57;;;38.80;92.30;;;;;;6197017;23;20006;-92
2022/06/27 07:32:48;;;;;;;11.75;10.10;;;38.20;92.30;;;;;;6196739;23;20008;-94
2022/06/27 07:35:17;;;;;;;12.20;10.77;;;37.70;92.40;;;;;;6196442;23;20000;-93
2022/06/27 07:37:48;;;;;;;20.30;11.02;;;37.40;92.70;;;;;;6200147;23;20334;-93
2022/06/27 07:40:23;;;;;;;14.05;10.98;;;37.70;92.30;;;;;;6195487;23;20004;-93
2022/06/27 07:42:51;;;;;;;21.77;10.10;;;37.80;91.90;;;;;;6198019;23;20389;-94
2022/06/27 07:45:20;;;;;;;15.18;10.27;;;38.00;91.60;;;;;;6197756;23;20003;-90
2022/06/27 07:47:46;;;;;;;19.20;10.93;;;38.80;91.80;;;;;;6171103;23;20211;-91
2022/06/27 07:51:00;;;;;;;11.85;10.32;;;38.80;91.20;;;;;;6171641;23;20144;-92
2022/06/27 07:53:12;;;;;;;12.85;10.30;;;38.80;90.90;;;;;;6173250;23;20124;-90
2022/06/27 07:55:59;;;;;;;12.10;10.30;;;38.40;91.10;;;;;;6169400;23;20067;-90
2022/06/27 07:58:35;;;;;;;12.73;10.90;;;38.80;90.60;;;;;;6193466;23;20407;-91
2022/06/27 08:01:06;;;;;;;13.48;10.38;;;38.40;90.50;;;;;;6169864;23;20009;-92
2022/06/27 08:03:36;;;;;;;19.98;11.15;;;37.80;90.50;;;;;;6169406;23;20004;-89
2022/06/27 08:06:15;;;;;;;18.00;10.35;;;37.60;91.00;;;;;;6167985;23;20047;-92
2022/06/27 08:08:45;;;;;;;12.73;11.10;;;38.30;90.40;;;;;;6168652;23;20024;-91
2022/06/27 08:11:15;;;;;;;10.70;9.77;;;38.90;89.80;;;;;;6167430;23;20005;-90
2022/06/27 08:13:44;;;;;;;15.85;9.95;;;38.50;90.00;;;;;;6169322;23;20035;-90
2022/06/27 08:16:14;;;;;;;11.75;10.30;;;39.00;89.20;;;;;;6193671;23;20005;-89
2022/06/27 08:18:44;;;;;;;12.50;10.50;;;38.80;89.40;;;;;;6169656;23;20064;-89
2022/06/27 08:21:13;;;;;;;14.13;10.20;;;38.80;89.20;;;;;;6171017;23;20004;-91
2022/06/27 08:23:40;;;;;;;11.18;9.70;;;38.20;88.20;;;;;;6172379;23;20004;-92
2022/06/27 08:26:12;;;;;;;13.52;9.98;;;37.80;89.90;;;;;;6197276;23;20009;-91
2022/06/27 08:28:41;;;;;;;16.65;10.00;;;37.60;89.90;;;;;;6197061;23;20042;-91
2022/06/27 08:31:10;;;;;;;13.23;9.60;;;37.40;88.10;;;;;;6171100;23;20016;-91
2022/06/27 08:33:39;;;;;;;14.77;9.93;;;37.90;88.10;;;;;;6196453;23;20019;-90
2022/06/27 08:36:07;;;;;;;11.85;9.60;;;38.40;88.40;;;;;;6196478;23;20000;-90
2022/06/27 08:38:45;;;;;;;11.80;10.38;;;38.40;88.00;;;;;;6196845;23;20066;-92
2022/06/27 08:41:13;;;;;;;16.95;9.70;;;38.30;88.00;;;;;;6170493;23;20009;-91
2022/06/27 08:43:40;;;;;;;11.30;10.40;;;38.20;86.10;;;;;;6169664;23;20059;-90
2022/06/27 08:46:12;;;;;;;14.65;10.57;;;38.70;87.00;;;;;;6177301;23;20052;-91
2022/06/27 08:48:41;;;;;;;10.40;9.43;;;38.40;88.40;;;;;;6199663;23;20038;-91
2022/06/27 08:51:09;;;;;;;13.50;9.48;;;38.20;84.40;;;;;;6198859;23;20031;-89
2022/06/27 08:53:40;;;;;;;14.95;9.75;;;38.70;85.50;;;;;;6199325;23;20494;-89
2022/06/27 08:56:10;;;;;;;12.38;9.60;;;38.60;85.80;;;;;;6199242;23;20349;-90
2022/06/27 08:58:37;;;;;;;11.07;9.52;;;38.80;85.90;;;;;;6198612;23;20015;-89
2022/06/27 09:01:05;;;;;;;10.40;9.40;;;38.80;87.40;;;;;;6200674;23;20031;-89
2022/06/27 09:03:32;;;;;;;10.43;9.50;;;38.90;87.90;;;;;;6201941;23;20004;-91
2022/06/27 09:06:05;;;;;;;14.20;10.35;;;39.00;89.10;;;;;;6200462;23;20008;-92
2022/06/27 09:09:03;;;;;;;15.27;10.52;;;38.80;86.90;;;;;;6202099;23;20379;-91
2022/06/27 09:11:32;;;;;;;11.10;10.02;;;38.10;86.00;;;;;;6200461;23;20004;-91
2022/06/27 09:14:00;;;;;;;10.68;9.65;;;38.20;87.90;;;;;;6202447;23;20011;-92
2022/06/27 09:16:27;;;;;;;10.35;9.63;;;38.40;86.30;;;;;;6202929;23;20015;-91
2022/06/27 09:18:55;;;;;;;15.00;10.15;;;38.90;87.90;;;;;;6199634;23;20008;-90
2022/06/27 09:21:22;;;;;;;11.40;10.20;;;39.60;87.50;;;;;;6196245;23;20016;-93
2022/06/27 09:23:53;;;;;;;11.20;9.70;;;39.10;87.90;;;;;;6198442;23;20433;-94
2022/06/27 09:26:26;;;;;;;13.25;9.48;;;38.90;85.80;;;;;;6199514;23;20460;-95
2022/06/27 09:29:01;;;;;;;16.65;10.13;;;39.10;85.00;;;;;;6198384;23;20099;-92
2022/06/27 09:31:32;;;;;;;11.02;9.18;;;38.70;85.80;;;;;;6198226;23;20015;-92
2022/06/27 09:34:12;;;;;;;15.48;9.40;;;38.20;85.50;;;;;;6199434;23;20042;-92
2022/06/27 09:36:42;;;;;;;11.65;9.25;;;38.40;89.10;;;;;;6204994;23;20310;-92
2022/06/27 09:39:18;;;;;;;12.27;9.90;;;38.90;90.60;;;;;;6199720;23;20092;-93
2022/06/27 09:41:56;;;;;;;11.38;9.57;;;38.90;90.40;;;;;;6196132;23;20008;-93
2022/06/27 09:44:28;;;;;;;11.65;9.93;;;39.00;91.40;;;;;;6196050;23;20019;-91
2022/06/27 09:47:04;;;;;;;15.43;10.20;;;38.70;91.50;;;;;;6190565;23;20020;-93
2022/06/27 09:49:34;;;;;;;13.57;9.85;;;38.20;91.80;;;;;;6191347;23;20035;-93
2022/06/27 09:52:08;;;;;;;16.33;10.18;;;37.40;92.40;;;;;;6190913;23;20015;-92
2022/06/27 09:54:36;;;;;;;13.88;9.50;;;37.60;92.70;;;;;;6191038;23;20415;-93
2022/06/27 09:57:04;;;;;;;10.55;9.55;;;37.90;92.90;;;;;;6191530;23;20000;-92
2022/06/27 09:59:32;;;;;;;14.90;10.05;;;37.30;94.30;;;;;;6191017;23;20015;-93
2022/06/27 10:02:00;;;;;;;11.50;9.77;;;36.80;93.80;;;;;;6190472;23;20009;-93
2022/06/27 10:04:28;;;;;;;10.63;9.55;;;36.60;94.30;;;;;;6190262;23;20050;-92
2022/06/27 10:06:58;;;;;;;10.38;9.38;;;36.50;94.30;;;;;;6215093;23;20016;-91
2022/06/27 10:09:25;;;;;;;14.20;9.70;;;36.60;95.00;;;;;;6190113;23;20032;-92
2022/06/27 10:12:22;;;;;;;10.77;9.68;;;36.80;95.20;;;;;;6189819;23;20011;-92
2022/06/27 10:15:09;;;;;;;14.18;9.70;;;36.50;94.70;;;;;;6190017;23;20466;-92
2022/06/27 10:17:43;;;;;;;10.52;9.45;;;36.70;95.30;;;;;;6164916;23;20012;-91
2022/06/27 10:20:20;;;;;;;12.25;9.52;;;36.80;95.20;;;;;;6190248;23;20009;-93
2022/06/27 10:23:08;;;;;;;15.65;10.30;;;36.50;95.40;;;;;;6189884;23;20490;-92
2022/06/27 10:25:36;;;;;;;16.42;9.77;;;36.90;94.50;;;;;;6189947;23;20005;-92
2022/06/27 10:28:09;;;;;;;11.05;10.05;;;36.80;93.80;;;;;;6189528;23;20154;-93
2022/06/27 10:30:43;;;;;;;14.95;10.10;;;36.60;94.00;;;;;;6189950;23;20001;-93
2022/06/27 10:33:19;;;;;;;10.52;9.68;;;36.50;93.80;;;;;;6189697;23;20338;-92
2022/06/27 10:35:59;;;;;;;12.95;9.90;;;36.30;93.90;;;;;;6179773;23;20091;-94
2022/06/27 10:38:43;;;;;;;11.02;9.95;;;36.70;94.10;;;;;;6190318;23;20055;-93
2022/06/27 10:41:31;;;;;;;14.10;10.13;;;36.80;94.00;;;;;;6190428;23;20013;-92
2022/06/27 10:44:03;;;;;;;15.18;9.25;;;36.80;93.90;;;;;;6190489;23;20095;-93
2022/06/27 10:46:29;;;;;;;10.90;9.95;;;36.60;94.40;;;;;;6190233;23;20012;-92
2022/06/27 10:48:58;;;;;;;10.88;9.68;;;36.40;94.80;;;;;;6190685;23;20063;-94
2022/06/27 10:51:28;;;;;;;13.07;9.57;;;36.80;94.70;;;;;;6190642;23;20026;-93
2022/06/27 10:54:06;;;;;;;12.95;9.25;;;37.00;94.90;;;;;;6190650;23;20019;-92
2022/06/27 10:56:39;;;;;;;11.98;9.50;;;36.50;94.90;;;;;;6197014;23;20009;-93
2022/06/27 10:59:29;;;;;;;14.03;8.63;;;36.40;94.60;;;;;;6198628;23;20012;-93
2022/06/27 11:01:58;;;;;;;13.18;9.50;;;36.70;93.80;;;;;;6171355;23;20007;-93
2022/06/27 11:04:28;;;;;;;10.38;9.45;;;36.80;94.00;;;;;;6191548;23;20062;-93
2022/06/27 11:06:59;;;;;;;10.88;9.80;;;36.80;93.70;;;;;;6190191;23;20013;-93
2022/06/27 11:09:43;;;;;;;10.05;9.02;;;36.80;93.60;;;;;;6193867;23;20016;-93
2022/06/27 11:12:14;;;;;;;14.90;9.23;;;36.40;93.50;;;;;;6190439;23;20028;-93
2022/06/27 11:14:48;;;;;;;10.98;9.90;;;36.10;93.70;;;;;;6191288;23;20008;-92
2022/06/27 11:17:34;;;;;;;11.10;9.60;;;36.10;93.50;;;;;;6190677;23;20013;-92
2022/06/27 11:20:18;;;;;;;10.82;9.35;;;36.30;93.50;;;;;;6190875;23;20009;-92
2022/06/27 11:22:49;;;;;;;11.38;9.43;;;37.00;92.90;;;;;;6190921;23;20009;-92
2022/06/27 11:25:19;;;;;;;10.57;9.68;;;36.80;92.50;;;;;;6190518;23;20008;-91
2022/06/27 11:27:48;;;;;;;13.35;9.50;;;36.80;92.50;;;;;;6193378;23;20016;-92
2022/06/27 11:33:32;;;;;;;13.80;10.02;;;36.80;92.50;;;;;;6191992;23;20016;-94
2022/06/27 11:35:59;;;;;;;10.52;9.80;;;37.00;92.10;;;;;;6143046;23;20497;-92
2022/06/27 11:38:48;;;;;;;12.30;9.60;;;36.80;92.00;;;;;;6145555;23;20009;-92
2022/06/27 11:41:24;;;;;;;13.38;10.05;;;36.60;91.90;;;;;;6143648;23;20044;-94
2022/06/27 11:44:02;;;;;;;13.13;10.30;;;36.40;91.90;;;;;;6172483;23;20005;-93
2022/06/27 11:46:36;;;;;;;13.35;10.23;;;36.60;91.40;;;;;;6148922;23;20040;-94
2022/06/27 11:49:14;;;;;;;12.50;10.23;;;36.70;91.20;;;;;;6144910;23;20495;-93
2022/06/27 11:51:44;;;;;;;12.15;9.98;;;36.70;91.30;;;;;;6149797;23;20009;-94
2022/06/27 11:54:15;;;;;;;11.27;9.77;;;37.00;91.00;;;;;;6182614;23;20017;-94
2022/06/27 11:56:46;;;;;;;10.65;9.70;;;37.20;90.80;;;;;;6157646;23;20005;-93
2022/06/27 11:59:17;;;;;;;13.27;10.00;;;37.20;90.90;;;;;;6151982;23;20533;-93
2022/06/27 12:01:51;;;;;;;11.00;10.00;;;36.60;91.30;;;;;;6091824;23;20013;-94
2022/06/27 12:04:19;;;;;;;11.38;9.98;;;36.60;91.20;;;;;;6136995;23;20020;-94
2022/06/27 12:06:47;;;;;;;10.70;9.77;;;36.40;91.50;;;;;;6161094;23;20055;-92
2022/06/27 12:09:47;;;;;;;11.35;10.30;;;36.30;91.50;;;;;;6142973;23;20489;-94
2022/06/27 12:12:25;;;;;;;12.98;10.60;;;36.20;91.20;;;;;;6109084;23;20069;-92
2022/06/27 12:14:52;;;;;;;;;;;36.00;91.10;;;;;;6138204;23;20009;-92
2022/06/27 12:17:20;;;;;;;14.60;10.65;;;35.90;91.20;;;;;;6195329;23;19903;-93
2022/06/27 12:19:58;;;;;;;11.88;10.55;;;36.30;90.80;;;;;;6206442;23;20177;-94
2022/06/27 12:22:24;;;;;;;14.00;10.15;;;36.10;90.70;;;;;;6206593;23;20015;-93
2022/06/27 12:24:50;;;;;;;11.13;10.13;;;36.40;90.50;;;;;;6209279;23;19996;-93
2022/06/27 12:27:17;;;;;;;11.70;10.45;;;36.40;90.30;;;;;;6204732;23;20007;-93
2022/06/27 12:29:56;;;;;;;11.45;10.00;;;36.20;88.80;;;;;;6205798;23;20008;-92
2022/06/27 12:32:23;;;;;;;13.32;10.20;;;36.50;89.50;;;;;;6203427;23;20359;-92
2022/06/27 12:34:50;;;;;;;14.15;10.32;;;36.80;89.20;;;;;;6202737;23;20035;-94
2022/06/27 12:37:16;;;;;;;11.30;10.30;;;36.80;89.90;;;;;;6211184;23;20064;-94
2022/06/27 12:41:11;;;;;;;11.90;10.35;;;36.80;90.40;;;;;;6089344;23;20002;-93
2022/06/27 12:44:30;;;;;;;13.93;10.05;;;36.80;88.50;;;;;;6127645;23;20029;-93
2022/06/27 12:47:04;;;;;;;11.85;10.50;;;36.60;90.10;;;;;;6090597;23;20026;-93
2022/06/27 12:49:35;;;;;;;12.40;10.18;;;36.40;90.30;;;;;;6054897;23;20006;-94
2022/06/27 12:52:13;;;;;;;11.00;10.02;;;36.60;89.50;;;;;;6083386;23;20009;-94
2022/06/27 12:55:15;;;;;;;11.20;10.07;;;36.70;89.20;;;;;;6083796;23;20051;-93
2022/06/27 12:57:43;;;;;;;12.93;10.70;;;36.60;87.80;;;;;;6089326;23;20047;-95
2022/06/27 13:00:54;;;;;;;10.88;9.82;;;36.30;88.10;;;;;;6086690;23;20014;-92
2022/06/27 13:03:53;;;;;;;11.30;10.23;;;36.10;87.60;;;;;;6047203;23;20026;-93
2022/06/27 13:06:26;;;;;;;12.02;10.20;;;36.20;88.70;;;;;;6078246;23;20488;-95
2022/06/27 13:08:55;;;;;;;11.13;10.20;;;36.60;87.30;;;;;;6088400;23;20029;-94
2022/06/27 13:11:46;;;;;;;12.55;10.00;;;36.80;86.60;;;;;;6108549;23;20070;-95
2022/06/27 13:14:12;;;;;;;11.40;10.40;;;36.70;86.10;;;;;;5992084;24;20008;-94
2022/06/27 13:16:42;;;;;;;11.52;10.15;;;36.60;85.70;;;;;;6037949;23;20068;-94
2022/06/27 13:19:11;;;;;;;11.45;10.27;;;36.60;85.60;;;;;;6052748;23;20003;-93
2022/06/27 13:21:39;;;;;;;11.38;10.43;;;36.70;85.90;;;;;;6022715;23;20504;-94
2022/06/27 13:24:05;;;;;;;12.38;10.68;;;36.70;86.30;;;;;;6042872;23;20011;-92
2022/06/27 13:26:32;;;;;;;10.50;9.80;;;36.70;85.20;;;;;;6020875;23;20446;-95
2022/06/27 13:28:59;;;;;;;12.45;10.43;;;36.50;84.60;;;;;;6023335;23;20023;-92
2022/06/27 13:31:25;;;;;;;13.20;10.13;;;36.30;84.40;;;;;;6046349;23;20014;-92
2022/06/27 13:33:51;;;;;;;12.73;10.30;;;36.20;85.10;;;;;;6022176;23;20047;-95
2022/06/27 13:36:17;;;;;;;10.30;9.43;;;35.90;84.60;;;;;;6018267;23;20020;-92
2022/06/27 13:38:44;;;;;;;11.60;9.90;;;36.10;84.10;;;;;;6019638;23;20007;-94
2022/06/27 13:41:11;;;;;;;14.55;10.00;;;36.00;84.40;;;;;;6028355;23;20037;-92
2022/06/27 13:43:37;;;;;;;11.73;10.00;;;36.20;82.90;;;;;;6064170;23;20009;-93
2022/06/27 13:46:04;;;;;;;11.07;9.70;;;36.30;83.40;;;;;;6083669;23;20014;-93
2022/06/27 13:48:30;;;;;;;12.10;9.75;;;36.50;83.00;;;;;;6051646;23;20029;-92
2022/06/27 13:50:56;;;;;;;10.75;9.68;;;36.30;82.80;;;;;;6126060;23;20092;-93
2022/06/27 13:53:23;;;;;;;13.20;9.95;;;36.40;83.70;;;;;;6167903;23;20009;-92
2022/06/27 13:59:20;;;;;;;10.57;9.30;;;36.50;82.00;;;;;;6223256;22;20028;-93
2022/06/27 14:02:01;;;;;;;10.38;9.38;;;36.10;83.20;;;;;;6234799;23;20019;-95
2022/06/27 14:05:06;;;;;;;10.30;9.60;;;36.10;83.50;;;;;;6220544;23;20011;-93
2022/06/27 14:08:08;;;;;;;10.10;9.13;;;36.40;83.30;;;;;;6119234;23;20017;-93
2022/06/27 14:11:08;;;;;;;10.18;9.30;;;36.40;82.30;;;;;;6112142;23;20013;-94
2022/06/27 14:14:05;;;;;;;10.98;10.02;;;36.10;82.30;;;;;;6115095;23;20100;-93
2022/06/27 14:17:10;;;;;;;;;;;;;;;;;;;;;
2022/06/27 14:34:09;;;;;;;10.45;9.70;;;35.80;84.10;;;;;;6178806;22;20025;-93
2022/06/27 14:36:35;;;;;;;10.18;9.40;;;35.40;84.90;;;;;;6172795;23;20381;-93
2022/06/27 16:22:07;;;;;;;9.10;8.50;;;33.90;85.20;;;;;;6290670;22;20000;-94
2022/06/27 16:24:57;;;;;;;15.43;9.18;;;33.80;84.90;;;;;;6260938;23;20051;-94
2022/06/27 16:27:35;;;;;;;9.25;8.75;;;33.70;85.60;;;;;;6197180;23;20061;-93
2022/06/27 16:31:39;;;;;;;8.93;8.48;;;33.70;85.00;;;;;;6210864;23;20023;-93
2022/06/27 16:33:03;;;;;;;9.50;8.80;;;33.80;85.00;;;;;;6237026;23;20008;-93
2022/06/27 16:36:01;;;;;;;9.38;8.65;;;33.70;85.00;;;;;;6215409;23;19992;-95
2022/06/27 16:39:15;;;;;;;9.32;8.63;;;33.60;85.70;;;;;;6237231;23;20022;-96
2022/06/27 16:44:45;;;;;;;9.18;8.52;;;33.20;83.80;;;;;;6148507;23;20013;-92
2022/06/27 16:47:19;;;;;;;9.38;8.70;;;33.20;85.30;;;;;;6110306;23;20021;-94
2022/06/27 16:49:56;;;;;;;8.88;8.27;;;33.10;85.60;;;;;;6114761;23;20006;-93
2022/06/27 16:52:35;;;;;;;8.95;8.43;;;33.10;84.50;;;;;;6111719;23;20009;-93
2022/06/27 16:55:07;;;;;;;9.15;8.65;;;33.00;84.00;;;;;;6066141;23;20025;-95
2022/06/27 16:57:44;;;;;;;9.47;8.70;;;33.10;83.30;;;;;;6113915;23;20061;-94
2022/06/27 17:00:11;;;;;;;9.00;8.32;;;33.00;85.10;;;;;;6084617;23;20407;-94
2022/06/27 17:02:40;;;;;;;9.18;8.55;;;33.10;85.10;;;;;;6107355;23;20006;-93
2022/06/27 17:05:09;;;;;;;8.60;8.10;;;33.00;84.40;;;;;;6083103;23;20107;-94
2022/06/27 17:07:35;;;;;;;8.45;7.93;;;32.90;83.80;;;;;;6081979;23;20058;-93
2022/06/27 17:10:04;;;;;;;9.23;8.52;;;32.80;84.20;;;;;;6108070;23;20002;-94
2022/06/27 17:12:33;;;;;;;8.88;8.35;;;32.80;85.30;;;;;;6108054;23;20033;-94
2022/06/27 17:15:00;;;;;;;9.18;8.52;;;32.70;86.80;;;;;;6110274;23;20001;-95
2022/06/27 17:17:29;;;;;;;9.65;8.73;;;32.60;87.80;;;;;;6096577;23;20028;-94
2022/06/27 17:19:55;;;;;;;9.35;8.55;;;32.60;88.60;;;;;;6175508;23;20101;-93
2022/06/27 17:22:25;;;;;;;8.77;8.30;;;32.40;89.50;;;;;;6163246;23;20009;-94
2022/06/27 17:24:52;;;;;;;8.80;8.07;;;32.40;89.80;;;;;;6167828;23;20009;-93
2022/06/27 17:27:19;;;;;;;10.98;8.35;;;32.30;88.30;;;;;;6147405;23;20558;-94
2022/06/27 17:29:46;;;;;;;8.95;8.20;;;32.20;88.70;;;;;;6170546;23;20494;-93
2022/06/27 17:32:13;;;;;;;9.05;8.45;;;32.20;89.10;;;;;;6165516;23;20009;-93
2022/06/27 17:34:39;;;;;;;8.90;8.10;;;32.10;89.80;;;;;;6165880;23;20013;-94
2022/06/27 17:37:08;;;;;;;8.93;8.30;;;32.20;90.20;;;;;;6165399;23;20472;-93
2022/06/27 17:39:34;;;;;;;9.15;8.20;;;32.10;90.50;;;;;;6161942;23;20020;-94
2022/06/27 17:42:01;;;;;;;12.13;8.75;;;32.00;90.70;;;;;;6138731;23;20009;-93
2022/06/27 17:44:27;;;;;;;9.40;8.52;;;32.00;91.00;;;;;;6138296;23;20033;-94
2022/06/27 17:46:54;;;;;;;13.15;8.55;;;31.90;91.30;;;;;;6162009;23;20388;-94
2022/06/27 17:49:30;;;;;;;9.05;8.15;;;31.90;91.30;;;;;;6164335;23;20337;-93
2022/06/27 17:52:01;;;;;;;8.38;7.85;;;31.70;91.60;;;;;;6142072;23;20036;-93
2022/06/27 17:54:28;;;;;;;9.93;8.27;;;31.70;91.90;;;;;;6169913;23;20126;-92
2022/06/27 17:56:54;;;;;;;9.13;8.43;;;31.70;92.20;;;;;;6145956;23;20001;-93
2022/06/27 17:59:28;;;;;;;10.13;9.13;;;31.60;92.70;;;;;;6144692;23;20016;-93
2022/06/27 18:01:56;;;;;;;9.60;8.65;;;31.50;92.30;;;;;;6169516;23;20009;-93
2022/06/27 18:04:22;;;;;;;8.73;8.18;;;31.40;92.80;;;;;;6171456;23;20016;-93
2022/06/27 18:06:49;;;;;;;9.50;8.63;;;31.40;92.80;;;;;;6167148;23;20006;-95
2022/06/27 18:09:16;;;;;;;9.05;8.38;;;31.40;92.70;;;;;;6146790;23;20012;-92
2022/06/27 18:11:42;;;;;;;9.75;8.70;;;31.30;93.10;;;;;;6155270;23;20020;-92
2022/06/27 18:14:09;;;;;;;9.43;8.48;;;31.20;93.30;;;;;;6179215;23;20012;-93
2022/06/27 18:16:36;;;;;;;11.77;9.20;;;31.10;93.60;;;;;;6148397;23;20335;-93
2022/06/27 18:19:03;;;;;;;8.95;8.23;;;31.10;94.20;;;;;;6147334;23;20017;-93
2022/06/27 18:21:29;;;;;;;10.77;7.90;;;31.00;94.20;;;;;;6163076;23;20079;-92
2022/06/27 18:23:56;;;;;;;11.60;8.50;;;30.90;94.50;;;;;;6137992;23;20009;-93
2022/06/27 18:26:22;;;;;;;9.13;7.55;;;30.80;95.20;;;;;;6143740;23;20008;-93
2022/06/27 18:28:49;;;;;;;17.30;8.15;;;30.70;95.30;;;;;;6164223;23;20022;-94
2022/06/27 18:31:18;;;;;;;11.85;8.15;;;30.60;95.60;;;;;;6167496;23;20002;-93
2022/06/27 18:33:46;;;;;;;11.55;7.93;;;30.50;95.80;;;;;;6168445;23;20009;-93
2022/06/27 18:36:12;;;;;;;9.77;7.68;;;30.50;95.90;;;;;;6141801;23;20001;-92
2022/06/27 18:38:38;;;;;;;8.95;7.50;;;30.30;96.00;;;;;;6176290;23;20017;-92
2022/06/27 18:41:05;;;;;;;15.80;7.65;;;30.20;96.30;;;;;;6163733;23;20074;-93
2022/06/27 18:43:31;;;;;;;15.25;7.50;;;30.10;96.50;;;;;;6138489;23;20005;-93
2022/06/27 18:46:02;;;;;;;13.75;8.45;;;29.90;96.70;;;;;;6137460;23;20431;-93
2022/06/27 18:48:28;;;;;;;15.48;10.25;;;29.90;96.70;;;;;;6137209;23;20020;-93
2022/06/27 18:50:55;;;;;;;10.15;8.52;;;29.80;97.10;;;;;;6161131;23;20008;-93
2022/06/27 18:53:21;;;;;;;30.60;15.48;;;29.60;97.30;;;;;;6137700;23;20020;-93
2022/06/27 18:55:51;;;;;;;28.13;14.60;;;29.50;97.50;;;;;;6162013;23;20012;-94
2022/06/27 18:58:17;;;;;;;25.65;10.45;;;29.50;97.50;;;;;;6162934;23;20009;-92
2022/06/27 19:00:44;;;;;;;19.05;11.10;;;29.50;97.50;;;;;;6162252;23;20087;-92
2022/06/27 19:03:11;;;;;;;10.13;9.13;;;29.40;97.80;;;;;;6161275;23;20036;-92
2022/06/27 19:05:37;;;;;;;12.35;8.27;;;29.40;98.10;;;;;;6136092;23;20001;-93
2022/06/27 19:08:04;;;;;;;19.88;8.60;;;29.40;98.40;;;;;;6136519;23;20017;-93
2022/06/27 19:10:31;;;;;;;24.80;8.50;;;29.50;98.60;;;;;;6141073;23;20020;-93
2022/06/27 19:13:05;;;;;;;13.48;7.00;;;29.40;98.80;;;;;;6149217;23;20064;-94
2022/06/27 20:31:21;;;;;;;17.95;5.57;;;28.60;99.90;;;;;;6248442;22;20050;-91
2022/06/27 20:33:48;;;;;;;25.00;6.65;;;28.60;99.90;;;;;;6258234;22;20008;-90
2022/06/27 20:36:15;;;;;;;12.23;5.75;;;28.60;99.90;;;;;;6232310;22;20429;-91
2022/06/27 20:38:43;;;;;;;13.95;5.60;;;28.50;99.90;;;;;;6228471;22;20440;-90
2022/06/27 20:41:11;;;;;;;20.55;7.15;;;28.60;99.90;;;;;;6224222;23;20004;-91
2022/06/27 20:43:38;;;;;;;23.45;9.90;;;28.60;99.90;;;;;;6199580;23;20472;-90
2022/06/27 20:46:05;;;;;;;18.85;6.60;;;28.70;99.90;;;;;;6198688;23;20079;-90
2022/06/27 20:48:32;;;;;;;14.13;5.68;;;28.70;99.90;;;;;;6211779;23;20016;-91
2022/06/27 20:50:58;;;;;;;16.55;5.22;;;28.80;99.90;;;;;;6206516;23;20000;-91
2022/06/27 20:53:25;;;;;;;24.08;5.93;;;28.80;99.90;;;;;;6203983;23;20012;-90
2022/06/27 20:55:53;;;;;;;18.70;5.60;;;28.80;99.90;;;;;;6203988;23;20004;-90
2022/06/27 20:58:20;;;;;;;19.63;5.38;;;28.80;99.90;;;;;;6204300;23;20018;-93
2022/06/27 21:00:47;;;;;;;14.50;5.20;;;28.80;99.90;;;;;;6207021;23;20012;-91
2022/06/27 21:03:14;;;;;;;17.48;5.88;;;28.80;99.90;;;;;;6213577;23;20015;-91
2022/06/27 21:05:43;;;;;;;19.00;5.55;;;28.70;99.90;;;;;;6214469;22;19984;-88
2022/06/27 21:13:41;;;;;;;20.40;5.13;;;28.20;99.90;;;;;;6227717;23;20011;-90
2022/06/27 21:16:08;;;;;;;15.55;4.78;;;28.00;99.90;;;;;;6197277;23;20009;-91
2022/06/27 21:18:34;;;;;;;23.55;4.88;;;27.80;99.90;;;;;;6199573;23;20008;-91
2022/06/27 21:21:01;;;;;;;17.77;5.32;;;27.70;99.90;;;;;;6197781;23;20394;-91
2022/06/27 21:23:28;;;;;;;17.38;5.65;;;27.70;99.90;;;;;;6199459;23;20009;-93
2022/06/27 21:25:55;;;;;;;19.23;5.45;;;27.60;99.90;;;;;;6198620;23;20091;-91
2022/06/27 21:28:22;;;;;;;17.33;5.05;;;27.60;99.90;;;;;;6196642;23;20027;-91
2022/06/27 21:30:49;;;;;;;19.42;5.93;;;27.60;99.90;;;;;;6191992;23;20014;-90
2022/06/27 21:33:16;;;;;;;16.38;4.90;;;27.60;99.90;;;;;;6202508;23;20008;-92
2022/06/27 21:35:43;;;;;;;13.90;5.38;;;27.50;99.90;;;;;;6202147;23;20442;-91
2022/06/27 21:38:10;;;;;;;15.38;5.38;;;27.30;99.90;;;;;;6194407;23;20001;-92
2022/06/27 21:40:37;;;;;;;15.80;5.50;;;27.20;99.90;;;;;;6191209;23;20004;-89
2022/06/27 21:43:04;;;;;;;10.82;3.97;;;27.10;99.90;;;;;;6192580;23;20004;-90
2022/06/27 21:45:31;;;;;;;18.23;5.05;;;26.90;99.90;;;;;;6192635;23;20008;-90
2022/06/27 21:47:58;;;;;;;12.80;4.70;;;26.70;99.90;;;;;;6193265;23;20059;-91
2022/06/27 21:50:24;;;;;;;14.10;4.40;;;26.70;99.90;;;;;;6195010;23;20005;-92
2022/06/27 21:52:51;;;;;;;14.10;4.43;;;26.60;99.90;;;;;;6196413;23;20069;-91
2022/06/27 21:55:21;;;;;;;12.60;4.53;;;26.60;99.90;;;;;;6206876;23;20016;-91
2022/06/27 21:57:51;;;;;;;12.00;3.97;;;26.60;99.90;;;;;;6201377;23;20020;-92
2022/06/27 22:00:43;;;;;;;10.93;4.57;;;26.60;99.90;;;;;;6194612;23;20016;-89
2022/06/27 22:03:14;;;;;;;13.43;4.15;;;26.50;99.90;;;;;;6191555;23;20009;-91
2022/06/27 22:05:43;;;;;;;16.35;5.05;;;26.40;99.90;;;;;;6191624;23;20031;-91
2022/06/27 22:08:11;;;;;;;20.98;4.47;;;26.30;99.90;;;;;;6191495;23;20068;-90
2022/06/27 22:10:39;;;;;;;13.75;4.40;;;26.20;99.90;;;;;;6191385;23;20016;-91
2022/06/27 22:13:07;;;;;;;16.20;4.57;;;26.20;99.90;;;;;;6191121;23;20005;-91
2022/06/27 22:15:39;;;;;;;10.07;3.75;;;26.10;99.90;;;;;;6191143;23;20005;-89
2022/06/27 22:18:10;;;;;;;15.88;4.50;;;26.00;99.90;;;;;;6191305;23;20008;-91
2022/06/27 22:20:42;;;;;;;12.32;3.78;;;26.00;99.90;;;;;;6190966;23;20008;-91
2022/06/27 22:23:10;;;;;;;12.60;4.20;;;26.10;99.90;;;;;;6191313;23;20012;-88
2022/06/27 22:25:37;;;;;;;19.27;5.25;;;26.10;99.90;;;;;;6191065;23;20386;-92
2022/06/27 22:28:04;;;;;;;11.00;4.18;;;26.10;99.90;;;;;;6191059;23;20346;-91
2022/06/27 22:30:31;;;;;;;12.90;5.07;;;26.10;99.90;;;;;;6194169;23;20422;-91
2022/06/27 22:32:58;;;;;;;20.27;5.25;;;26.20;99.90;;;;;;6196080;23;20019;-89
2022/06/27 22:35:26;;;;;;;14.93;4.80;;;26.30;99.90;;;;;;6196045;23;20459;-93
2022/06/27 22:37:54;;;;;;;18.88;5.57;;;26.30;99.90;;;;;;6195964;23;20004;-91
2022/06/27 22:40:21;;;;;;;14.10;5.18;;;26.30;99.90;;;;;;6196125;23;20000;-91
2022/06/27 22:42:48;;;;;;;17.50;5.68;;;26.30;99.90;;;;;;6196067;23;20012;-89
2022/06/27 22:45:14;;;;;;;15.40;5.32;;;26.40;99.90;;;;;;6195856;23;20040;-91
2022/06/27 22:47:41;;;;;;;19.38;5.07;;;26.40;99.90;;;;;;6199303;23;20016;-90
2022/06/27 22:50:09;;;;;;;18.98;6.22;;;26.50;99.90;;;;;;6200129;23;20036;-90
2022/06/27 22:52:36;;;;;;;16.65;5.57;;;26.60;99.90;;;;;;6198282;23;20004;-92
2022/06/27 22:55:03;;;;;;;14.93;5.22;;;26.50;99.90;;;;;;6195741;23;20009;-92
2022/06/27 22:57:30;;;;;;;15.38;5.55;;;26.40;99.90;;;;;;6196722;23;20008;-90
2022/06/27 22:59:56;;;;;;;12.63;4.75;;;26.40;99.90;;;;;;6195615;23;20079;-92
2022/06/27 23:02:23;;;;;;;20.50;5.03;;;26.40;99.90;;;;;;6195494;23;20008;-93
2022/06/27 23:04:50;;;;;;;19.65;5.05;;;26.30;99.90;;;;;;6195641;23;20011;-90
2022/06/27 23:07:17;;;;;;;17.30;4.43;;;26.30;99.90;;;;;;6221597;23;20043;-93
2022/06/27 23:09:43;;;;;;;12.18;4.63;;;26.10;99.90;;;;;;6197047;23;20009;-90
2022/06/27 23:12:14;;;;;;;13.98;4.20;;;26.00;99.90;;;;;;6202808;23;20004;-91